Time;durP1;ratioP1;P1;durP2;ratioP2;P2;SDS_P1;SDS_P2;PMS_P1;PMS_P2;Temp;Humidity;BMP_temperature;BMP_pressure;BME280_temperature;BME280_humidity;BME280_pressure;Samples;Min_cycle;Max_cycle;Signal;HPM_P1;HPM_P2
2021/03/13 00:01:14;;;;;;;;;;;28.60;71.90;;;;;;5146922;27;20130;-53
2021/03/13 00:03:40;;;;;;;;;;;28.50;71.70;;;;;;5127725;28;19906;-50
2021/03/13 00:06:07;;;;;;;;;;;28.50;71.50;;;;;;5111771;28;20093;-49
2021/03/13 00:08:35;;;;;;;;;;;28.50;72.10;;;;;;5061263;28;19935;-49
2021/03/13 00:11:21;;;;;;;;;;;28.50;71.70;;;;;;5043756;28;20159;-52
2021/03/13 00:13:47;;;;;;;;;;;28.50;71.60;;;;;;5060722;27;20009;-50
2021/03/13 00:16:14;;;;;;;;;;;28.50;71.40;;;;;;5061095;28;19975;-50
2021/03/13 00:18:40;;;;;;;;;;;28.50;71.40;;;;;;5060692;28;19907;-49
2021/03/13 00:21:06;;;;;;;;;;;28.50;71.40;;;;;;5043261;28;19905;-51
2021/03/13 00:23:33;;;;;;;;;;;28.50;71.10;;;;;;5060989;28;19932;-50
2021/03/13 00:25:59;;;;;;;;;;;28.50;71.50;;;;;;5060983;28;19916;-50
2021/03/13 00:28:27;;;;;;;;;;;28.50;71.40;;;;;;5043065;28;19901;-50
2021/03/13 00:30:53;;;;;;;;;;;28.40;71.30;;;;;;5043467;28;20208;-51
2021/03/13 00:33:20;;;;;;;;;;;28.50;71.20;;;;;;5061103;28;19905;-53
2021/03/13 00:35:52;;;;;;;;;;;28.50;71.20;;;;;;5061097;28;19947;-59
2021/03/13 00:38:19;;;;;;;;;;;28.50;71.20;;;;;;5060792;28;19907;-50
2021/03/13 00:40:45;;;;;;;;;;;28.40;71.70;;;;;;5061146;28;19944;-52
2021/03/13 00:43:12;;;;;;;;;;;28.40;71.70;;;;;;5060677;28;19996;-51
2021/03/13 00:45:39;;;;;;;;;;;28.40;71.70;;;;;;5061113;28;19916;-50
2021/03/13 00:48:06;;;;;;;;;;;28.40;72.00;;;;;;5042893;28;19994;-52
2021/03/13 00:50:33;;;;;;;;;;;28.40;72.30;;;;;;5060886;28;19972;-53
2021/03/13 00:52:59;;;;;;;;;;;28.40;72.30;;;;;;5060450;28;19901;-54
2021/03/13 00:55:25;;;;;;;;;;;28.30;72.00;;;;;;5060826;28;20093;-52
2021/03/13 00:57:52;;;;;;;;;;;28.30;72.70;;;;;;5060037;28;19904;-51
2021/03/13 01:00:22;;;;;;;;;;;28.30;72.60;;;;;;5060671;28;19975;-55
2021/03/13 01:02:48;;;;;;;;;;;28.30;72.50;;;;;;5060395;28;19942;-51
2021/03/13 01:05:14;;;;;;;;;;;28.30;71.90;;;;;;5060340;28;19916;-50
2021/03/13 01:07:41;;;;;;;;;;;28.30;72.00;;;;;;5059897;28;19919;-51
2021/03/13 01:10:12;;;;;;;;;;;28.30;72.10;;;;;;5060636;28;19912;-51
2021/03/13 01:12:39;;;;;;;;;;;28.20;72.00;;;;;;5060188;28;19960;-51
2021/03/13 01:15:07;;;;;;;;;;;28.20;72.00;;;;;;5060673;28;19905;-56
2021/03/13 01:17:33;;;;;;;;;;;28.20;72.10;;;;;;5060491;28;19909;-52
2021/03/13 01:19:59;;;;;;;;;;;28.20;72.30;;;;;;5061089;28;19912;-51
2021/03/13 01:22:25;;;;;;;;;;;28.20;72.00;;;;;;5063875;28;19912;-55
2021/03/13 01:24:52;;;;;;;;;;;28.20;72.10;;;;;;5063596;28;19968;-53
2021/03/13 01:27:18;;;;;;;;;;;28.20;72.10;;;;;;5062418;28;19975;-53
2021/03/13 01:29:44;;;;;;;;;;;28.20;72.40;;;;;;5063729;28;19909;-50
2021/03/13 01:32:10;;;;;;;;;;;28.20;72.10;;;;;;5063410;28;20156;-56
2021/03/13 01:34:38;;;;;;;;;;;28.20;71.80;;;;;;5063471;28;19909;-55
2021/03/13 01:37:06;;;;;;;;;;;28.20;72.30;;;;;;5063289;28;20127;-52
2021/03/13 01:39:32;;;;;;;;;;;28.20;72.30;;;;;;5063444;28;19936;-53
2021/03/13 01:41:59;;;;;;;;;;;28.20;72.30;;;;;;5063241;28;19904;-56
2021/03/13 01:44:26;;;;;;;;;;;28.20;72.50;;;;;;5062992;28;20176;-53
2021/03/13 01:46:52;;;;;;;;;;;28.20;72.70;;;;;;5063423;28;20090;-54
2021/03/13 01:49:21;;;;;;;;;;;28.10;72.50;;;;;;5062656;28;19911;-51
2021/03/13 01:51:49;;;;;;;;;;;28.10;73.00;;;;;;5063330;28;20135;-50
2021/03/13 01:54:15;;;;;;;;;;;28.10;72.60;;;;;;5063401;28;19912;-52
2021/03/13 01:56:42;;;;;;;;;;;28.10;72.50;;;;;;5062952;28;19943;-50
2021/03/13 01:59:09;;;;;;;;;;;28.20;72.50;;;;;;5062880;28;20080;-51
2021/03/13 02:01:35;;;;;;;;;;;28.10;72.40;;;;;;5063398;28;20168;-48
2021/03/13 02:04:02;;;;;;;;;;;28.20;72.50;;;;;;5062718;28;19905;-46
2021/03/13 02:06:28;;;;;;;;;;;28.20;72.20;;;;;;5044872;28;19961;-48
2021/03/13 02:09:01;;;;;;;;;;;28.20;72.30;;;;;;5062992;28;19900;-49
2021/03/13 02:11:39;;;;;;;;;;;28.10;72.10;;;;;;5062709;28;19901;-50
2021/03/13 02:14:05;;;;;;;;;;;28.10;72.00;;;;;;5064548;28;20145;-51
2021/03/13 02:16:39;;;;;;;;;;;28.10;72.00;;;;;;5063194;28;19904;-50
2021/03/13 02:19:22;;;;;;;;;;;28.10;72.00;;;;;;5063049;28;19916;-51
2021/03/13 02:21:53;;;;;;;;;;;28.10;72.00;;;;;;5063563;28;19901;-53
2021/03/13 02:24:22;;;;;;;;;;;28.10;72.10;;;;;;5045132;28;19921;-51
2021/03/13 02:27:07;;;;;;;;;;;28.10;71.90;;;;;;5062682;28;19901;-52
2021/03/13 02:29:33;;;;;;;;;;;28.00;71.70;;;;;;5062638;28;20118;-55
2021/03/13 02:32:06;;;;;;;;;;;28.00;71.80;;;;;;5062414;28;19960;-53
2021/03/13 02:34:34;;;;;;;;;;;28.00;71.70;;;;;;5059540;28;19909;-52
2021/03/13 02:37:04;;;;;;;;;;;28.00;72.30;;;;;;5062540;28;19905;-50
2021/03/13 02:39:32;;;;;;;;;;;28.00;72.60;;;;;;5045477;28;20078;-49
2021/03/13 02:42:01;;;;;;;;;;;28.00;73.00;;;;;;5063127;28;19907;-54
2021/03/13 02:44:30;;;;;;;;;;;28.00;72.80;;;;;;5046997;28;19909;-47
2021/03/13 02:46:56;;;;;;;;;;;27.90;72.90;;;;;;5045662;28;19972;-53
2021/03/13 02:49:23;;;;;;;;;;;27.90;72.80;;;;;;5062492;28;20197;-55
2021/03/13 02:51:53;;;;;;;;;;;27.90;72.90;;;;;;5063077;28;19941;-50
2021/03/13 02:54:26;;;;;;;;;;;27.90;72.80;;;;;;5046161;28;20181;-51
2021/03/13 02:56:53;;;;;;;;;;;27.90;73.00;;;;;;5063776;28;19926;-48
2021/03/13 02:59:23;;;;;;;;;;;27.90;73.40;;;;;;5063460;28;19909;-52
2021/03/13 03:01:53;;;;;;;;;;;27.80;73.10;;;;;;5045460;28;19936;-51
2021/03/13 03:04:20;;;;;;;;;;;27.80;73.30;;;;;;5062895;28;20198;-52
2021/03/13 03:06:51;;;;;;;;;;;27.80;73.60;;;;;;5044956;28;19917;-50
2021/03/13 03:09:20;;;;;;;;;;;27.70;74.00;;;;;;5063485;28;19909;-51
2021/03/13 03:11:47;;;;;;;;;;;27.70;74.20;;;;;;5046009;28;20241;-51
2021/03/13 03:14:18;;;;;;;;;;;27.70;74.60;;;;;;5045452;28;20097;-49
2021/03/13 03:16:54;;;;;;;;;;;27.60;75.10;;;;;;5062032;28;19966;-52
2021/03/13 03:19:27;;;;;;;;;;;27.60;75.60;;;;;;5046025;28;19908;-53
2021/03/13 03:21:56;;;;;;;;;;;27.60;75.60;;;;;;5044985;28;20092;-49
2021/03/13 03:24:23;;;;;;;;;;;27.60;75.80;;;;;;5062405;28;19984;-53
2021/03/13 03:26:50;;;;;;;;;;;27.60;76.40;;;;;;5062513;28;19900;-49
2021/03/13 03:29:18;;;;;;;;;;;27.60;76.30;;;;;;5062002;28;19909;-49
2021/03/13 03:31:46;;;;;;;;;;;27.50;76.50;;;;;;5062264;28;19905;-51
2021/03/13 03:34:12;;;;;;;;;;;27.50;76.70;;;;;;5062305;28;19930;-53
2021/03/13 03:36:40;;;;;;;;;;;27.50;77.10;;;;;;5044390;28;20197;-51
2021/03/13 03:39:07;;;;;;;;;;;27.50;76.50;;;;;;5062007;28;19936;-52
2021/03/13 03:41:34;;;;;;;;;;;27.40;76.80;;;;;;5062380;28;19900;-54
2021/03/13 03:44:03;;;;;;;;;;;27.40;76.80;;;;;;5044337;28;20185;-51
2021/03/13 03:46:33;;;;;;;;;;;27.40;76.40;;;;;;5062335;28;19941;-54
2021/03/13 03:49:02;;;;;;;;;;;27.40;76.40;;;;;;5062059;28;20230;-51
2021/03/13 03:51:35;;;;;;;;;;;27.40;76.50;;;;;;5046200;28;19938;-48
2021/03/13 03:54:14;;;;;;;;;;;27.40;76.60;;;;;;5062503;28;19909;-52
2021/03/13 03:56:41;;;;;;;;;;;27.40;76.20;;;;;;5043939;28;19945;-48
2021/03/13 03:59:13;;;;;;;;;;;27.40;76.50;;;;;;5061439;28;19908;-50
2021/03/13 04:01:44;;;;;;;;;;;27.30;76.70;;;;;;5062156;28;19901;-50
2021/03/13 04:04:12;;;;;;;;;;;27.30;76.50;;;;;;5061291;28;19947;-51
2021/03/13 04:06:38;;;;;;;;;;;27.20;76.30;;;;;;5061165;28;19912;-50
2021/03/13 04:09:06;;;;;;;;;;;27.30;76.30;;;;;;5043815;28;19908;-51
2021/03/13 04:11:32;;;;;;;;;;;27.30;76.30;;;;;;5062228;28;19915;-52
2021/03/13 04:14:01;;;;;;;;;;;27.30;76.40;;;;;;5026966;28;19916;-50
2021/03/13 04:16:32;;;;;;;;;;;27.30;76.30;;;;;;5061422;28;19909;-51
2021/03/13 04:19:00;;;;;;;;;;;27.30;76.20;;;;;;5061268;28;19912;-49
2021/03/13 04:21:28;;;;;;;;;;;27.30;75.90;;;;;;5061422;28;20113;-50
2021/03/13 04:23:59;;;;;;;;;;;27.30;75.80;;;;;;5061295;28;20009;-51
2021/03/13 04:26:27;;;;;;;;;;;27.30;75.60;;;;;;5060759;28;20218;-50
2021/03/13 04:28:54;;;;;;;;;;;27.30;75.40;;;;;;5043520;28;19942;-49
2021/03/13 04:31:27;;;;;;;;;;;27.30;75.10;;;;;;5043227;28;20104;-52
2021/03/13 04:33:54;;;;;;;;;;;27.30;75.20;;;;;;5043545;28;19901;-57
2021/03/13 04:36:21;;;;;;;;;;;27.30;75.20;;;;;;5060880;28;19987;-51
2021/03/13 04:38:47;;;;;;;;;;;27.20;75.10;;;;;;5060656;28;19900;-50
2021/03/13 04:41:16;;;;;;;;;;;27.20;75.00;;;;;;5060714;28;20204;-51
2021/03/13 04:43:42;;;;;;;;;;;27.30;74.80;;;;;;5060572;28;20181;-50
2021/03/13 04:46:09;;;;;;;;;;;27.30;74.40;;;;;;5061121;28;19905;-57
2021/03/13 04:48:36;;;;;;;;;;;27.30;74.00;;;;;;5061248;28;19936;-53
2021/03/13 04:51:04;;;;;;;;;;;27.30;74.10;;;;;;5062710;28;19939;-51
2021/03/13 04:53:30;;;;;;;;;;;27.20;74.00;;;;;;5061272;28;19958;-51
2021/03/13 04:55:57;;;;;;;;;;;27.30;74.10;;;;;;5062660;28;19905;-52
2021/03/13 04:58:23;;;;;;;;;;;27.20;74.10;;;;;;5046802;28;19909;-50
2021/03/13 05:00:51;;;;;;;;;;;27.30;73.90;;;;;;5046139;28;19905;-48
2021/03/13 05:03:17;;;;;;;;;;;27.30;73.40;;;;;;5064379;28;19954;-54
2021/03/13 05:05:43;;;;;;;;;;;27.30;73.20;;;;;;5064540;28;19905;-51
2021/03/13 05:08:10;;;;;;;;;;;27.30;73.10;;;;;;5064704;28;19912;-47
2021/03/13 05:10:36;;;;;;;;;;;27.30;73.00;;;;;;5064881;28;19909;-48
2021/03/13 05:13:03;;;;;;;;;;;27.30;72.90;;;;;;5047192;28;19908;-50
2021/03/13 05:15:29;;;;;;;;;;;27.30;72.90;;;;;;5048432;27;20017;-51
2021/03/13 05:17:55;;;;;;;;;;;27.30;72.70;;;;;;5064175;28;19904;-51
2021/03/13 05:20:22;;;;;;;;;;;27.30;72.70;;;;;;5046694;28;19909;-50
2021/03/13 05:22:48;;;;;;;;;;;27.30;72.70;;;;;;5046221;28;20105;-58
2021/03/13 05:25:15;;;;;;;;;;;27.30;72.70;;;;;;5063765;28;19909;-55
2021/03/13 05:27:41;;;;;;;;;;;27.30;72.60;;;;;;5063669;28;19901;-52
2021/03/13 05:30:09;;;;;;;;;;;27.30;72.70;;;;;;5063988;28;20238;-50
2021/03/13 05:32:38;;;;;;;;;;;27.30;72.80;;;;;;5063394;28;20089;-51
2021/03/13 05:35:05;;;;;;;;;;;27.30;72.90;;;;;;5064646;28;20195;-54
2021/03/13 05:37:32;;;;;;;;;;;27.30;72.90;;;;;;5064683;28;20189;-53
2021/03/13 05:39:58;;;;;;;;;;;27.20;73.10;;;;;;5063882;28;19908;-53
2021/03/13 05:42:25;;;;;;;;;;;27.20;73.30;;;;;;5063743;28;20096;-54
2021/03/13 05:44:53;;;;;;;;;;;27.20;73.40;;;;;;5063760;28;19936;-51
2021/03/13 05:47:20;;;;;;;;;;;27.10;73.40;;;;;;5063237;28;19938;-50
2021/03/13 05:49:58;;;;;;;;;;;27.10;73.70;;;;;;5063916;28;20232;-52
2021/03/13 05:52:26;;;;;;;;;;;27.10;73.90;;;;;;5064102;28;19936;-56
2021/03/13 05:54:52;;;;;;;;;;;27.10;73.90;;;;;;5063820;28;19915;-53
2021/03/13 05:57:19;;;;;;;;;;;27.10;73.90;;;;;;5045241;28;19911;-50
2021/03/13 05:59:45;;;;;;;;;;;27.10;74.20;;;;;;5063151;28;19961;-46
2021/03/13 06:02:11;;;;;;;;;;;27.10;74.20;;;;;;5062819;28;19915;-50
2021/03/13 06:04:37;;;;;;;;;;;27.10;74.30;;;;;;5063073;28;19916;-53
2021/03/13 06:07:03;;;;;;;;;;;27.10;74.40;;;;;;5062236;28;19913;-50
2021/03/13 06:09:30;;;;;;;;;;;27.10;74.50;;;;;;5062866;28;19916;-47
2021/03/13 06:11:56;;;;;;;;;;;27.10;74.50;;;;;;5063128;28;19976;-50
2021/03/13 06:14:23;;;;;;;;;;;27.10;74.40;;;;;;5062788;28;20089;-50
2021/03/13 06:16:49;;;;;;;;;;;27.10;74.80;;;;;;5062604;28;19912;-52
2021/03/13 06:19:15;;;;;;;;;;;27.00;74.40;;;;;;5062856;28;19909;-53
2021/03/13 06:21:41;;;;;;;;;;;27.00;74.30;;;;;;5062572;28;19936;-54
2021/03/13 06:24:07;;;;;;;;;;;27.00;74.30;;;;;;5062714;28;19928;-57
2021/03/13 06:27:09;;;;;;;;;;;27.00;74.30;;;;;;5062601;28;20242;-53
2021/03/13 06:29:35;;;;;;;;;;;27.00;74.30;;;;;;5083725;28;19904;-54
2021/03/13 06:32:05;;;;;;;;;;;27.00;74.30;;;;;;5066787;28;19928;-53
2021/03/13 06:34:31;;;;;;;;;;;27.00;74.70;;;;;;5062377;28;20108;-51
2021/03/13 06:37:16;;;;;;;;;;;27.00;74.20;;;;;;5062141;28;19924;-52
2021/03/13 06:39:42;;;;;;;;;;;27.00;73.90;;;;;;5062643;28;19975;-51
2021/03/13 06:42:24;;;;;;;;;;;27.00;74.00;;;;;;5062040;28;19932;-55
2021/03/13 06:44:57;;;;;;;;;;;27.00;74.20;;;;;;5062476;28;20124;-50
2021/03/13 06:47:33;;;;;;;;;;;27.00;74.10;;;;;;5062090;28;19905;-54
2021/03/13 06:50:13;;;;;;;;;;;27.00;74.80;;;;;;5062381;28;19941;-49
2021/03/13 06:52:43;;;;;;;;;;;26.90;74.50;;;;;;5061982;28;19904;-50
2021/03/13 06:55:35;;;;;;;;;;;26.90;74.50;;;;;;5062504;28;19912;-51
2021/03/13 06:58:06;;;;;;;;;;;26.90;74.60;;;;;;5062522;28;19970;-52
2021/03/13 07:00:33;;;;;;;;;;;26.90;74.50;;;;;;5062446;28;19904;-50
2021/03/13 07:03:12;;;;;;;;;;;26.90;74.50;;;;;;5061693;28;19905;-53
2021/03/13 07:05:40;;;;;;;;;;;26.90;74.60;;;;;;5062362;28;19911;-50
2021/03/13 07:08:21;;;;;;;;;;;26.90;74.70;;;;;;5061776;28;19913;-52
2021/03/13 07:10:48;;;;;;;;;;;26.80;74.60;;;;;;5062220;28;19936;-52
2021/03/13 07:13:33;;;;;;;;;;;26.80;74.50;;;;;;5061797;28;19901;-52
2021/03/13 07:16:18;;;;;;;;;;;26.80;74.50;;;;;;5044114;28;20218;-53
2021/03/13 07:18:45;;;;;;;;;;;26.80;74.80;;;;;;5060515;28;19908;-52
2021/03/13 07:21:12;;;;;;;;;;;26.80;74.50;;;;;;5061935;28;19907;-51
2021/03/13 07:23:38;;;;;;;;;;;26.90;74.30;;;;;;5061548;28;20109;-50
2021/03/13 07:26:05;;;;;;;;;;;26.90;74.20;;;;;;5061510;28;20130;-47
2021/03/13 07:28:31;;;;;;;;;;;26.90;74.20;;;;;;5061467;28;20001;-49
2021/03/13 07:30:59;;;;;;;;;;;26.80;74.00;;;;;;5061983;28;19979;-52
2021/03/13 07:33:28;;;;;;;;;;;26.80;74.00;;;;;;5061434;28;19905;-48
2021/03/13 07:35:54;;;;;;;;;;;26.80;74.30;;;;;;5061891;28;19916;-52
2021/03/13 07:38:21;;;;;;;;;;;26.80;73.70;;;;;;5061501;28;19901;-52
2021/03/13 07:40:48;;;;;;;;;;;26.80;73.90;;;;;;5061776;28;20133;-49
2021/03/13 07:43:16;;;;;;;;;;;26.80;73.30;;;;;;5062033;28;19950;-51
2021/03/13 07:45:42;;;;;;;;;;;26.80;73.00;;;;;;5062101;28;19975;-51
2021/03/13 07:48:11;;;;;;;;;;;26.80;73.00;;;;;;5062240;28;19922;-49
2021/03/13 07:50:39;;;;;;;;;;;26.80;73.00;;;;;;5061516;28;20201;-52
2021/03/13 07:53:06;;;;;;;;;;;26.80;72.20;;;;;;5061138;28;19908;-52
2021/03/13 07:55:33;;;;;;;;;;;26.90;72.00;;;;;;5060959;28;19901;-46
2021/03/13 07:58:00;;;;;;;;;;;26.80;72.20;;;;;;5061634;28;19942;-51
2021/03/13 08:00:42;;;;;;;;;;;26.90;72.60;;;;;;5061413;28;19908;-50
2021/03/13 08:03:27;;;;;;;;;;;26.90;72.10;;;;;;5061176;28;19908;-51
2021/03/13 08:05:58;;;;;;;;;;;26.80;72.10;;;;;;5061245;28;19900;-50
2021/03/13 08:08:42;;;;;;;;;;;26.80;72.00;;;;;;5041021;28;19974;-57
2021/03/13 08:11:12;;;;;;;;;;;26.80;72.00;;;;;;5041382;28;19911;-51
2021/03/13 08:13:38;;;;;;;;;;;26.80;71.90;;;;;;5041005;28;19967;-52
2021/03/13 08:16:05;;;;;;;;;;;26.80;72.00;;;;;;5041186;28;20090;-51
2021/03/13 08:18:41;;;;;;;;;;;26.80;71.80;;;;;;5041318;28;19905;-54
2021/03/13 08:21:20;;;;;;;;;;;26.80;71.50;;;;;;5023658;28;19917;-51
2021/03/13 08:23:56;;;;;;;;;;;26.80;71.50;;;;;;5041417;28;19940;-58
2021/03/13 08:26:35;;;;;;;;;;;26.80;71.20;;;;;;5041144;28;20118;-51
2021/03/13 08:29:02;;;;;;;;;;;26.80;71.50;;;;;;5042211;28;19905;-50
2021/03/13 08:31:28;;;;;;;;;;;26.80;71.40;;;;;;5044737;28;19976;-50
2021/03/13 08:33:54;;;;;;;;;;;26.80;71.50;;;;;;5044986;28;19942;-51
2021/03/13 08:36:27;;;;;;;;;;;26.80;71.70;;;;;;5044553;28;19969;-53
2021/03/13 08:38:56;;;;;;;;;;;26.80;71.80;;;;;;5044273;28;19905;-53
2021/03/13 08:41:44;;;;;;;;;;;26.80;71.90;;;;;;5044474;28;19912;-53
2021/03/13 08:44:11;;;;;;;;;;;26.80;71.90;;;;;;5044871;28;19963;-53
2021/03/13 08:46:44;;;;;;;;;;;26.80;72.30;;;;;;5044515;28;20145;-51
2021/03/13 08:49:30;;;;;;;;;;;26.80;71.90;;;;;;5044472;28;19905;-51
2021/03/13 08:52:03;;;;;;;;;;;26.80;72.00;;;;;;5043756;28;19958;-52
2021/03/13 08:54:44;;;;;;;;;;;26.80;72.10;;;;;;5044426;28;19905;-51
2021/03/13 08:57:17;;;;;;;;;;;26.80;72.10;;;;;;5045050;28;19951;-53
2021/03/13 09:00:03;;;;;;;;;;;26.80;71.90;;;;;;5043781;28;19933;-49
2021/03/13 09:02:32;;;;;;;;;;;26.80;71.90;;;;;;5044294;28;20181;-54
2021/03/13 09:05:07;;;;;;;;;;;26.70;72.30;;;;;;5043848;28;19932;-53
2021/03/13 09:07:33;;;;;;;;;;;26.70;72.40;;;;;;5056826;28;19916;-51
2021/03/13 09:10:00;;;;;;;;;;;26.70;72.50;;;;;;5063799;28;19901;-48
2021/03/13 09:12:29;;;;;;;;;;;26.70;72.50;;;;;;5064267;28;19908;-51
2021/03/13 09:14:59;;;;;;;;;;;26.70;72.50;;;;;;5063912;28;19908;-51
2021/03/13 09:17:26;;;;;;;;;;;26.70;72.10;;;;;;5064075;28;19953;-53
2021/03/13 09:19:53;;;;;;;;;;;26.70;72.30;;;;;;5063412;28;19954;-52
2021/03/13 09:22:23;;;;;;;;;;;26.70;72.20;;;;;;5063980;28;19909;-50
2021/03/13 09:24:57;;;;;;;;;;;26.70;72.20;;;;;;5063467;28;19900;-54
2021/03/13 09:27:27;;;;;;;;;;;26.70;71.90;;;;;;5063746;28;20182;-51
2021/03/13 09:29:54;;;;;;;;;;;26.70;71.90;;;;;;5063504;28;19971;-54
2021/03/13 09:32:21;;;;;;;;;;;26.80;72.00;;;;;;5063635;28;19908;-51
2021/03/13 09:34:48;;;;;;;;;;;26.80;71.60;;;;;;5063376;28;19907;-53
2021/03/13 09:37:20;;;;;;;;;;;26.70;71.60;;;;;;5063622;28;19952;-52
2021/03/13 09:39:51;;;;;;;;;;;26.80;71.50;;;;;;5045498;28;19967;-51
2021/03/13 09:42:27;;;;;;;;;;;26.80;71.50;;;;;;5063215;28;19908;-49
2021/03/13 09:44:54;;;;;;;;;;;26.80;71.60;;;;;;5063233;28;20267;-54
2021/03/13 09:47:27;;;;;;;;;;;26.80;71.70;;;;;;5063389;28;20123;-51
2021/03/13 09:49:54;;;;;;;;;;;26.70;72.00;;;;;;5063191;28;20127;-51
2021/03/13 09:52:24;;;;;;;;;;;26.70;71.80;;;;;;5063458;28;19909;-50
2021/03/13 09:54:58;;;;;;;;;;;26.70;72.50;;;;;;5063156;28;19901;-53
2021/03/13 09:57:25;;;;;;;;;;;26.70;72.00;;;;;;5063306;28;19936;-60
2021/03/13 09:59:51;;;;;;;;;;;26.70;72.20;;;;;;5062811;28;19901;-57
2021/03/13 10:02:20;;;;;;;;;;;26.70;72.30;;;;;;5063361;28;19909;-63
2021/03/13 10:04:56;;;;;;;;;;;26.70;72.40;;;;;;5062839;28;19901;-57
2021/03/13 10:07:22;;;;;;;;;;;26.70;72.20;;;;;;5062655;28;20275;-52
2021/03/13 10:09:57;;;;;;;;;;;26.70;72.10;;;;;;5062705;28;19901;-52
2021/03/13 10:12:24;;;;;;;;;;;26.70;71.80;;;;;;5062862;28;19909;-52
2021/03/13 10:14:51;;;;;;;;;;;26.70;71.20;;;;;;5062873;28;20244;-57
2021/03/13 10:17:17;;;;;;;;;;;26.70;70.90;;;;;;5062823;28;19912;-53
2021/03/13 10:19:44;;;;;;;;;;;26.80;71.10;;;;;;5062679;28;20156;-55
2021/03/13 10:22:12;;;;;;;;;;;26.80;70.70;;;;;;5062643;28;19912;-54
2021/03/13 10:24:48;;;;;;;;;;;26.80;70.80;;;;;;5062579;28;19909;-59
2021/03/13 10:27:20;;;;;;;;;;;26.80;70.80;;;;;;5062887;28;19939;-52
2021/03/13 10:29:50;;;;;;;;;;;26.80;70.50;;;;;;5062287;28;19971;-53
2021/03/13 10:32:20;;;;;;;;;;;26.80;70.80;;;;;;5062784;28;19905;-56
2021/03/13 10:34:47;;;;;;;;;;;26.80;70.30;;;;;;5062414;28;20212;-54
2021/03/13 10:37:33;;;;;;;;;;;26.80;70.40;;;;;;5062684;28;19909;-55
2021/03/13 10:39:59;;;;;;;;;;;26.80;70.80;;;;;;5062191;28;19911;-57
2021/03/13 10:42:25;;;;;;;;;;;26.80;70.80;;;;;;5062757;28;19904;-56
2021/03/13 10:44:51;;;;;;;;;;;26.80;71.00;;;;;;5062135;28;19941;-53
2021/03/13 10:47:36;;;;;;;;;;;26.80;71.20;;;;;;5062549;28;20093;-53
2021/03/13 10:50:02;;;;;;;;;;;26.80;71.30;;;;;;5062187;28;19908;-52
2021/03/13 10:52:28;;;;;;;;;;;26.80;71.20;;;;;;5062309;28;20188;-53
2021/03/13 10:54:56;;;;;;;;;;;26.90;71.20;;;;;;5062037;28;19904;-53
2021/03/13 10:57:22;;;;;;;;;;;26.90;71.60;;;;;;5062141;28;19908;-51
2021/03/13 10:59:48;;;;;;;;;;;26.80;71.60;;;;;;5061885;28;19904;-51
2021/03/13 11:02:14;;;;;;;;;;;26.90;71.50;;;;;;5062377;28;19905;-52
2021/03/13 11:04:41;;;;;;;;;;;26.90;71.50;;;;;;5061997;28;19975;-52
2021/03/13 11:07:07;;;;;;;;;;;26.90;71.80;;;;;;5061756;28;20215;-53
2021/03/13 11:09:34;;;;;;;;;;;26.80;72.70;;;;;;5061812;28;20097;-52
2021/03/13 11:12:00;;;;;;;;;;;26.80;73.30;;;;;;5062425;28;19915;-50
2021/03/13 11:14:26;;;;;;;;;;;26.80;72.40;;;;;;5062413;28;19905;-46
2021/03/13 11:16:52;;;;;;;;;;;26.80;72.60;;;;;;5061951;28;20207;-52
2021/03/13 11:19:19;;;;;;;;;;;26.80;73.60;;;;;;5061810;28;20234;-53
2021/03/13 11:21:45;;;;;;;;;;;26.80;73.50;;;;;;5061887;28;19946;-51
2021/03/13 11:24:11;;;;;;;;;;;26.80;73.20;;;;;;5061806;28;19907;-57
2021/03/13 11:26:38;;;;;;;;;;;26.80;73.10;;;;;;5062088;28;19908;-52
2021/03/13 11:29:05;;;;;;;;;;;26.80;73.40;;;;;;5061935;28;19905;-52
2021/03/13 11:31:32;;;;;;;;;;;26.80;72.90;;;;;;5061662;28;19909;-54
2021/03/13 11:33:58;;;;;;;;;;;26.80;72.90;;;;;;5061611;28;19915;-56
2021/03/13 11:36:24;;;;;;;;;;;26.80;73.60;;;;;;5061642;28;20200;-56
2021/03/13 11:38:50;;;;;;;;;;;26.80;74.60;;;;;;5061829;28;19900;-57
2021/03/13 11:41:16;;;;;;;;;;;26.70;75.80;;;;;;5061801;28;19909;-53
2021/03/13 11:43:43;;;;;;;;;;;26.60;75.60;;;;;;5061429;28;20039;-54
2021/03/13 11:46:10;;;;;;;;;;;26.60;77.10;;;;;;5061350;28;19950;-53
2021/03/13 11:48:36;;;;;;;;;;;26.50;76.40;;;;;;5061327;28;19915;-54
2021/03/13 11:51:02;;;;;;;;;;;26.50;76.80;;;;;;5061390;28;19935;-55
2021/03/13 11:53:32;;;;;;;;;;;26.50;77.40;;;;;;5061477;28;19901;-53
2021/03/13 11:55:58;;;;;;;;;;;26.50;78.90;;;;;;5062648;28;19908;-57
2021/03/13 11:58:24;;;;;;;;;;;26.50;79.40;;;;;;5062638;28;19901;-52
2021/03/13 12:00:51;;;;;;;;;;;26.50;79.70;;;;;;5043756;28;19901;-52
2021/03/13 12:03:17;;;;;;;;;;;26.40;79.70;;;;;;5061184;28;20089;-54
2021/03/13 12:05:44;;;;;;;;;;;26.40;79.90;;;;;;5060864;28;19964;-54
2021/03/13 12:08:10;;;;;;;;;;;26.30;79.60;;;;;;5060769;28;19988;-53
2021/03/13 12:10:37;;;;;;;;;;;26.30;80.00;;;;;;5061104;28;19950;-53
2021/03/13 12:13:04;;;;;;;;;;;26.20;80.30;;;;;;5061018;28;20181;-49
2021/03/13 12:15:30;;;;;;;;;;;26.20;80.20;;;;;;5060823;28;20164;-48
2021/03/13 12:17:56;;;;;;;;;;;26.20;80.80;;;;;;5061520;28;20181;-53
2021/03/13 12:20:22;;;;;;;;;;;26.20;80.70;;;;;;5061166;28;19912;-51
2021/03/13 12:22:51;;;;;;;;;;;26.20;80.50;;;;;;5062068;28;20181;-54
2021/03/13 12:25:18;;;;;;;;;;;26.20;79.90;;;;;;5061560;28;19911;-52
2021/03/13 12:27:44;;;;;;;;;;;26.20;79.60;;;;;;5061334;28;19928;-52
2021/03/13 12:30:11;;;;;;;;;;;26.20;79.50;;;;;;5043072;28;19925;-51
2021/03/13 12:32:37;;;;;;;;;;;26.20;79.60;;;;;;5043104;28;19908;-51
2021/03/13 12:35:05;;;;;;;;;;;26.20;80.10;;;;;;5060819;28;19905;-56
2021/03/13 12:37:31;;;;;;;;;;;26.20;80.20;;;;;;5061013;28;20255;-53
2021/03/13 12:39:58;;;;;;;;;;;26.20;80.50;;;;;;5060695;28;19905;-53
2021/03/13 12:42:25;;;;;;;;;;;26.20;80.70;;;;;;5061171;28;19905;-51
2021/03/13 12:44:52;;;;;;;;;;;26.10;80.80;;;;;;5060519;28;19905;-51
2021/03/13 12:47:19;;;;;;;;;;;26.10;81.30;;;;;;5060795;28;19905;-56
2021/03/13 12:49:45;;;;;;;;;;;26.10;81.90;;;;;;5060501;28;19911;-52
2021/03/13 12:52:11;;;;;;;;;;;26.10;81.70;;;;;;5060651;28;19904;-51
2021/03/13 12:54:38;;;;;;;;;;;26.10;81.80;;;;;;5060774;28;19904;-50
2021/03/13 12:57:04;;;;;;;;;;;26.20;82.00;;;;;;5060831;28;20245;-60
2021/03/13 12:59:30;;;;;;;;;;;26.10;81.80;;;;;;5060918;28;19942;-52
2021/03/13 13:01:56;;;;;;;;;;;26.20;81.70;;;;;;5060561;28;20058;-59
2021/03/13 13:04:23;;;;;;;;;;;26.20;81.70;;;;;;5060626;28;19905;-51
2021/03/13 13:06:49;;;;;;;;;;;26.10;81.70;;;;;;5060134;28;19916;-52
2021/03/13 13:09:15;;;;;;;;;;;26.10;81.60;;;;;;5060369;28;19942;-50
2021/03/13 13:11:41;;;;;;;;;;;26.10;81.70;;;;;;5060234;28;19931;-53
2021/03/13 13:14:07;;;;;;;;;;;26.10;81.80;;;;;;5060232;28;19908;-53
2021/03/13 13:16:34;;;;;;;;;;;26.10;82.00;;;;;;5061642;28;19912;-50
2021/03/13 13:19:00;;;;;;;;;;;26.10;82.20;;;;;;5063794;28;19909;-52
2021/03/13 13:21:26;;;;;;;;;;;26.10;82.90;;;;;;5063685;28;19950;-52
2021/03/13 13:23:54;;;;;;;;;;;26.10;83.90;;;;;;5063566;28;19904;-56
2021/03/13 13:26:20;;;;;;;;;;;26.00;83.10;;;;;;5064092;28;19917;-51
2021/03/13 13:28:46;;;;;;;;;;;26.00;83.40;;;;;;5063598;28;20257;-51
2021/03/13 13:31:13;;;;;;;;;;;26.00;83.60;;;;;;5063776;28;20066;-51
2021/03/13 13:33:39;;;;;;;;;;;26.00;85.60;;;;;;5063898;28;20282;-56
2021/03/13 13:36:18;;;;;;;;;;;26.00;86.10;;;;;;5063851;28;19940;-53
2021/03/13 13:38:45;;;;;;;;;;;26.00;87.10;;;;;;5063861;28;20185;-60
2021/03/13 13:41:14;;;;;;;;;;;25.90;87.80;;;;;;5064118;28;20177;-61
2021/03/13 13:43:40;;;;;;;;;;;25.80;89.40;;;;;;5063972;28;19936;-55
2021/03/13 13:46:06;;;;;;;;;;;25.70;89.50;;;;;;5064430;28;19913;-47
2021/03/13 13:48:33;;;;;;;;;;;25.60;90.60;;;;;;5063779;28;19901;-52
2021/03/13 13:50:59;;;;;;;;;;;25.50;90.60;;;;;;5063616;28;19908;-50
2021/03/13 13:53:25;;;;;;;;;;;25.40;90.80;;;;;;5063234;28;20181;-52
2021/03/13 13:55:51;;;;;;;;;;;25.40;91.00;;;;;;5063362;28;19900;-55
2021/03/13 13:58:18;;;;;;;;;;;25.40;91.00;;;;;;5063790;28;20160;-56
2021/03/13 14:00:44;;;;;;;;;;;25.30;90.50;;;;;;5063170;28;20208;-52
2021/03/13 14:03:10;;;;;;;;;;;25.30;90.50;;;;;;5063233;28;19924;-55
2021/03/13 14:05:36;;;;;;;;;;;25.30;91.20;;;;;;5046029;28;19907;-55
2021/03/13 14:08:03;;;;;;;;;;;25.30;91.60;;;;;;5063149;27;20115;-54
2021/03/13 14:10:29;;;;;;;;;;;25.30;91.40;;;;;;5063119;28;19901;-57
2021/03/13 14:12:56;;;;;;;;;;;25.30;91.20;;;;;;5063584;28;19913;-55
2021/03/13 14:15:23;;;;;;;;;;;25.20;91.60;;;;;;5064058;28;19901;-54
2021/03/13 14:17:49;;;;;;;;;;;25.20;91.40;;;;;;5063753;28;20192;-53
2021/03/13 14:20:16;;;;;;;;;;;25.20;91.40;;;;;;5063340;28;19900;-53
2021/03/13 14:22:45;;;;;;;;;;;25.10;91.40;;;;;;5063861;28;19908;-51
2021/03/13 14:25:11;;;;;;;;;;;25.10;91.60;;;;;;5062825;28;19901;-57